createdAt,value
2022-12-28T00:01:24.191Z,15.93
2022-12-28T00:03:52.314Z,13.43
2022-12-28T00:06:23.413Z,12.15
2022-12-28T00:08:53.797Z,17.95
2022-12-28T00:11:27.411Z,14.02
2022-12-28T00:14:00.722Z,10.13
2022-12-28T00:16:31.683Z,13.18
2022-12-28T00:19:00.708Z,14.38
2022-12-28T00:21:28.800Z,14.80
2022-12-28T00:23:58.520Z,14.60
2022-12-28T00:26:26.938Z,13.40
2022-12-28T00:28:58.290Z,19.33
2022-12-28T00:31:28.983Z,14.32
2022-12-28T00:33:56.499Z,14.32
2022-12-28T00:36:23.381Z,12.35
2022-12-28T00:38:50.419Z,12.77
2022-12-28T00:41:17.570Z,13.30
2022-12-28T00:43:44.643Z,12.77
2022-12-28T00:46:11.820Z,13.88
2022-12-28T00:48:38.713Z,13.40
2022-12-28T00:51:12.228Z,12.73
2022-12-28T00:53:39.048Z,14.73
2022-12-28T00:56:14.328Z,12.10
2022-12-28T00:58:41.302Z,12.45
2022-12-28T01:01:16.926Z,14.15
2022-12-28T01:03:44.406Z,11.52
2022-12-28T01:06:13.970Z,13.18
2022-12-28T01:08:42.466Z,15.70
2022-12-28T01:11:11.554Z,11.57
2022-12-28T01:13:38.990Z,11.75
2022-12-28T01:16:12.149Z,9.68
2022-12-28T01:18:39.213Z,11.85
2022-12-28T01:21:19.480Z,13.65
2022-12-28T01:23:47.360Z,14.05
2022-12-28T01:26:15.694Z,7.25
2022-12-28T01:28:43.022Z,12.15
2022-12-28T01:31:13.665Z,10.95
2022-12-28T01:33:40.925Z,11.75
2022-12-28T01:36:15.570Z,10.55
2022-12-28T01:38:43.758Z,14.43
2022-12-28T01:41:12.530Z,9.20
2022-12-28T01:43:46.658Z,13.55
2022-12-28T01:46:18.231Z,9.77
2022-12-28T01:49:08.057Z,10.40
2022-12-28T01:51:43.693Z,8.30
2022-12-28T01:54:11.372Z,9.95
2022-12-28T01:56:39.715Z,7.18
2022-12-28T01:59:06.714Z,7.80
2022-12-28T02:01:33.786Z,13.32
2022-12-28T02:04:01.606Z,10.10
2022-12-28T02:06:31.330Z,8.48
2022-12-28T02:09:30.062Z,7.15
2022-12-28T02:11:59.055Z,6.05
2022-12-28T02:14:26.119Z,8.80
2022-12-28T02:16:55.185Z,8.30
2022-12-28T02:19:36.350Z,9.18
2022-12-28T02:22:12.160Z,10.43
2022-12-28T02:25:20.690Z,17.42
2022-12-28T02:28:02.671Z,9.25
2022-12-28T02:30:34.329Z,9.68
2022-12-28T02:33:19.001Z,7.82
2022-12-28T02:36:00.036Z,8.13
2022-12-28T02:38:37.574Z,8.65
2022-12-28T02:41:09.631Z,9.13
2022-12-28T02:43:36.890Z,7.97
2022-12-28T02:46:29.882Z,5.20
2022-12-28T02:49:15.841Z,8.40
2022-12-28T02:52:04.410Z,6.38
2022-12-28T02:54:52.894Z,8.18
2022-12-28T02:57:41.092Z,6.88
2022-12-28T03:00:19.690Z,6.00
2022-12-28T03:02:58.979Z,7.97
2022-12-28T03:06:19.324Z,5.47
2022-12-28T03:08:55.831Z,8.35
2022-12-28T03:11:32.709Z,8.93
2022-12-28T03:14:06.778Z,6.20
2022-12-28T03:16:58.236Z,10.10
2022-12-28T03:19:51.267Z,6.28
2022-12-28T03:22:38.370Z,7.03
2022-12-28T03:25:30.742Z,6.70
2022-12-28T03:28:17.694Z,4.40
2022-12-28T03:31:09.045Z,10.35
2022-12-28T03:33:48.555Z,6.68
2022-12-28T03:36:53.606Z,7.82
2022-12-28T03:40:21.737Z,5.35
2022-12-28T03:43:13.915Z,10.23
2022-12-28T03:45:59.624Z,7.55
2022-12-28T03:48:26.853Z,6.65
2022-12-28T03:50:55.393Z,5.72
2022-12-28T03:53:30.504Z,10.73
2022-12-28T03:56:18.441Z,8.43
2022-12-28T03:58:45.951Z,5.18
2022-12-28T04:01:13.116Z,5.30
2022-12-28T04:03:40.532Z,7.50
2022-12-28T04:06:08.940Z,9.38
2022-12-28T04:08:36.029Z,7.53
2022-12-28T04:11:02.979Z,6.18
2022-12-28T04:13:31.872Z,5.13
2022-12-28T04:16:04.322Z,5.13
2022-12-28T04:18:32.586Z,8.95
2022-12-28T04:21:00.053Z,10.77
2022-12-28T04:23:27.312Z,6.38
2022-12-28T04:26:14.247Z,7.25
2022-12-28T04:28:42.185Z,4.35
2022-12-28T04:31:12.256Z,8.13
2022-12-28T04:33:40.118Z,7.43
2022-12-28T04:36:13.589Z,5.75
2022-12-28T04:38:40.563Z,5.40
2022-12-28T04:41:08.776Z,9.55
2022-12-28T04:43:36.375Z,10.20
2022-12-28T04:46:06.124Z,7.78
2022-12-28T04:48:34.263Z,4.15
2022-12-28T04:51:10.616Z,6.30
2022-12-28T04:53:39.332Z,6.03
2022-12-28T04:56:07.611Z,6.82
2022-12-28T04:58:34.641Z,4.68
2022-12-28T05:01:06.935Z,7.13
2022-12-28T05:03:36.414Z,7.88
2022-12-28T05:06:07.609Z,8.10
2022-12-28T05:08:36.423Z,8.77
2022-12-28T05:11:05.719Z,10.55
2022-12-28T05:13:33.295Z,8.07
2022-12-28T05:16:05.422Z,13.18
2022-12-28T05:18:32.294Z,10.82
2022-12-28T05:21:03.661Z,11.30
2022-12-28T05:23:31.477Z,6.88
2022-12-28T05:25:58.630Z,10.95
2022-12-28T05:28:26.718Z,9.05
2022-12-28T05:30:58.958Z,8.48
2022-12-28T05:33:25.772Z,7.53
2022-12-28T05:35:52.611Z,9.88
2022-12-28T05:38:19.601Z,9.77
2022-12-28T05:40:46.705Z,5.70
2022-12-28T05:43:13.670Z,10.00
2022-12-28T05:45:40.746Z,5.43
2022-12-28T05:48:07.732Z,7.20
2022-12-28T05:50:34.736Z,9.27
2022-12-28T05:53:01.904Z,10.45
2022-12-28T05:55:29.324Z,11.48
2022-12-28T05:57:59.379Z,14.05
2022-12-28T06:00:26.587Z,15.05
2022-12-28T06:02:55.567Z,8.05
2022-12-28T06:05:22.583Z,10.00
2022-12-28T06:07:53.287Z,9.38
2022-12-28T06:10:20.312Z,3.95
2022-12-28T06:12:47.182Z,7.15
2022-12-28T06:15:13.975Z,7.90
2022-12-28T06:17:40.762Z,9.25
2022-12-28T06:20:08.063Z,12.00
2022-12-28T06:22:36.157Z,8.38
2022-12-28T06:25:03.246Z,10.18
2022-12-28T06:27:30.306Z,9.20
2022-12-28T06:29:57.355Z,6.82
2022-12-28T06:32:24.261Z,14.25
2022-12-28T06:34:51.154Z,9.65
2022-12-28T06:37:18.477Z,6.05
2022-12-28T06:39:45.643Z,9.73
2022-12-28T06:42:12.459Z,8.38
2022-12-28T06:44:44.418Z,9.00
2022-12-28T06:47:12.289Z,10.85
2022-12-28T06:49:39.321Z,6.95
2022-12-28T06:52:06.477Z,9.48
2022-12-28T06:54:33.589Z,6.22
2022-12-28T06:57:00.511Z,5.97
2022-12-28T06:59:27.399Z,10.63
2022-12-28T07:01:54.488Z,12.02
2022-12-28T07:04:21.478Z,12.13
2022-12-28T07:06:48.431Z,5.03
2022-12-28T07:09:16.556Z,11.63
2022-12-28T07:11:44.671Z,9.85
2022-12-28T07:14:12.062Z,13.45
2022-12-28T07:19:05.019Z,5.72
2022-12-28T07:21:35.336Z,6.90
2022-12-28T07:24:03.386Z,11.65
2022-12-28T07:26:32.725Z,7.95
2022-12-28T07:29:02.024Z,10.18
2022-12-28T07:31:41.730Z,4.72
2022-12-28T07:34:11.242Z,10.27
2022-12-28T07:36:38.227Z,11.38
2022-12-28T07:39:05.353Z,9.98
2022-12-28T07:41:33.843Z,10.05
2022-12-28T07:44:01.584Z,9.05
2022-12-28T07:46:34.399Z,8.85
2022-12-28T07:49:01.446Z,8.13
2022-12-28T07:51:39.472Z,10.00
2022-12-28T07:54:06.869Z,6.93
2022-12-28T07:59:02.419Z,11.38
2022-12-28T08:01:32.382Z,7.70
2022-12-28T08:04:04.321Z,9.23
2022-12-28T08:06:35.629Z,6.20
2022-12-28T08:09:03.664Z,14.73
2022-12-28T08:11:33.885Z,10.25
2022-12-28T08:14:01.431Z,6.55
2022-12-28T08:16:31.234Z,11.43
2022-12-28T08:18:58.558Z,9.13
2022-12-28T08:21:34.818Z,9.10
2022-12-28T08:24:02.694Z,8.20
2022-12-28T08:26:35.819Z,8.85
2022-12-28T08:29:06.242Z,12.25
2022-12-28T08:31:36.293Z,8.45
2022-12-28T08:34:04.888Z,9.90
2022-12-28T08:36:32.735Z,10.75
2022-12-28T08:39:01.433Z,8.15
2022-12-28T08:41:29.963Z,14.00
2022-12-28T08:43:57.875Z,13.23
2022-12-28T08:46:33.438Z,8.63
2022-12-28T08:49:01.607Z,10.43
2022-12-28T08:51:36.011Z,13.82
2022-12-28T08:54:03.839Z,5.75
2022-12-28T08:56:34.624Z,8.30
2022-12-28T08:59:02.744Z,8.65
2022-12-28T09:01:43.700Z,12.38
2022-12-28T09:04:22.265Z,12.70
2022-12-28T09:06:49.737Z,9.45
2022-12-28T09:09:19.266Z,8.75
2022-12-28T09:11:52.273Z,11.65
2022-12-28T09:14:23.780Z,10.07
2022-12-28T09:16:53.023Z,7.75
2022-12-28T09:19:20.498Z,8.80
2022-12-28T09:21:49.343Z,9.40
2022-12-28T09:24:16.381Z,7.35
2022-12-28T09:26:43.647Z,11.90
2022-12-28T09:29:13.166Z,10.02
2022-12-28T09:31:41.647Z,7.30
2022-12-28T09:36:59.850Z,10.48
2022-12-28T09:39:27.180Z,8.45
2022-12-28T09:42:03.711Z,10.27
2022-12-28T09:44:48.166Z,17.20
2022-12-28T09:47:27.836Z,6.68
2022-12-28T09:50:00.951Z,10.05
2022-12-28T09:52:49.406Z,14.25
2022-12-28T09:55:18.933Z,8.25
2022-12-28T09:57:53.441Z,12.73
2022-12-28T10:00:26.021Z,12.30
2022-12-28T10:02:59.398Z,14.85
2022-12-28T10:05:28.032Z,11.52
2022-12-28T10:08:04.472Z,14.40
2022-12-28T10:10:31.593Z,9.63
2022-12-28T10:13:37.103Z,13.70
2022-12-28T10:15:58.447Z,8.75
2022-12-28T10:18:27.561Z,13.73
2022-12-28T10:20:55.895Z,15.25
2022-12-28T10:23:31.971Z,11.68
2022-12-28T10:26:01.195Z,8.10
2022-12-28T10:28:38.549Z,16.63
2022-12-28T10:31:08.504Z,10.57
2022-12-28T10:33:53.721Z,10.23
2022-12-28T10:36:21.799Z,13.25
2022-12-28T10:38:52.717Z,14.60
2022-12-28T10:41:20.672Z,10.77
2022-12-28T10:44:21.440Z,12.48
2022-12-28T10:46:39.249Z,11.00
2022-12-28T10:49:10.988Z,9.00
2022-12-28T10:52:03.162Z,8.65
2022-12-28T10:54:34.491Z,13.35
2022-12-28T10:57:03.021Z,15.00
2022-12-28T10:59:31.376Z,7.80
2022-12-28T11:02:30.144Z,9.25
2022-12-28T11:05:00.324Z,7.78
2022-12-28T11:07:31.594Z,12.82
2022-12-28T11:10:26.967Z,12.65
2022-12-28T11:12:56.647Z,8.07
2022-12-28T11:15:26.898Z,9.18
2022-12-28T11:18:00.303Z,12.70
2022-12-28T11:20:34.517Z,8.15
2022-12-28T11:23:05.053Z,5.78
2022-12-28T11:25:34.668Z,14.68
2022-12-28T11:28:27.441Z,11.57
2022-12-28T11:30:54.762Z,8.27
2022-12-28T11:33:38.499Z,11.13
2022-12-28T11:36:10.019Z,13.13
2022-12-28T11:38:45.668Z,12.27
2022-12-28T11:41:47.020Z,11.52
2022-12-28T11:44:35.331Z,10.40
2022-12-28T11:47:16.267Z,11.30
2022-12-28T11:49:45.086Z,8.73
2022-12-28T11:52:18.096Z,16.55
2022-12-28T11:54:52.623Z,9.52
2022-12-28T11:57:38.159Z,13.55
2022-12-28T12:00:22.340Z,12.88
2022-12-28T12:02:53.936Z,10.30
2022-12-28T12:05:39.071Z,8.80
2022-12-28T12:08:12.096Z,9.38
2022-12-28T12:10:41.905Z,15.27
2022-12-28T12:13:42.996Z,11.55
2022-12-28T12:16:19.662Z,9.20
2022-12-28T12:18:51.210Z,12.57
2022-12-28T12:21:39.878Z,14.98
2022-12-28T12:24:44.687Z,12.50
2022-12-28T12:27:16.440Z,14.80
2022-12-28T12:30:00.431Z,11.30
2022-12-28T12:32:46.568Z,15.35
2022-12-28T12:35:22.496Z,10.77
2022-12-28T12:38:09.872Z,9.90
2022-12-28T12:40:55.567Z,10.63
2022-12-28T12:43:43.139Z,11.55
2022-12-28T12:46:29.185Z,10.60
2022-12-28T12:49:14.363Z,13.43
2022-12-28T12:52:19.551Z,8.10
2022-12-28T12:55:11.891Z,8.57
2022-12-28T12:58:17.489Z,8.15
2022-12-28T13:01:16.200Z,11.27
2022-12-28T13:03:51.148Z,7.60
2022-12-28T13:06:21.986Z,8.60
2022-12-28T13:09:00.392Z,8.18
2022-12-28T13:11:31.148Z,11.10
2022-12-28T13:13:58.311Z,7.95
2022-12-28T13:16:28.576Z,12.57
2022-12-28T13:19:06.657Z,6.70
2022-12-28T13:21:43.543Z,8.52
2022-12-28T13:24:40.391Z,8.07
2022-12-28T13:27:19.110Z,6.57
2022-12-28T13:29:54.500Z,13.77
2022-12-28T13:32:38.304Z,8.02
2022-12-28T13:35:22.315Z,10.75
2022-12-28T13:38:04.389Z,5.68
2022-12-28T13:40:32.868Z,5.00
2022-12-28T13:43:09.404Z,10.32
2022-12-28T13:45:36.481Z,10.02
2022-12-28T13:48:05.569Z,11.13
2022-12-28T13:50:34.784Z,6.55
2022-12-28T13:53:09.650Z,9.82
2022-12-28T13:55:40.005Z,11.88
2022-12-28T13:58:16.365Z,5.72
2022-12-28T14:00:46.606Z,6.70
2022-12-28T14:03:15.668Z,7.68
2022-12-28T14:05:50.854Z,7.38
2022-12-28T14:08:18.504Z,7.65
2022-12-28T14:10:47.965Z,6.15
2022-12-28T14:13:17.650Z,6.65
2022-12-28T14:15:45.145Z,10.00
2022-12-28T14:18:16.827Z,7.50
2022-12-28T14:20:52.195Z,12.80
2022-12-28T14:23:30.463Z,8.98
2022-12-28T14:26:01.980Z,11.00
2022-12-28T14:28:36.802Z,8.35
2022-12-28T14:31:06.018Z,12.40
2022-12-28T14:33:50.928Z,8.15
2022-12-28T14:39:04.786Z,6.97
2022-12-28T14:41:41.069Z,11.75
2022-12-28T14:44:23.441Z,9.25
2022-12-28T14:46:54.356Z,6.63
2022-12-28T14:49:44.520Z,7.45
2022-12-28T14:52:11.868Z,10.23
2022-12-28T14:54:50.555Z,8.77
2022-12-28T14:57:43.403Z,10.02
2022-12-28T15:00:16.461Z,7.93
2022-12-28T15:02:43.567Z,8.38
2022-12-28T15:05:56.666Z,7.78
2022-12-28T15:08:23.636Z,8.60
2022-12-28T15:10:53.643Z,10.52
2022-12-28T15:13:21.583Z,11.10
2022-12-28T15:16:00.441Z,8.75
2022-12-28T15:18:30.756Z,8.95
2022-12-28T15:21:02.618Z,7.97
2022-12-28T15:23:29.531Z,10.65
2022-12-28T15:25:56.458Z,10.85
2022-12-28T15:28:26.332Z,14.10
2022-12-28T15:30:53.232Z,10.25
2022-12-28T15:33:20.186Z,11.70
2022-12-28T15:35:47.129Z,12.10
2022-12-28T15:38:14.433Z,6.80
2022-12-28T15:40:41.825Z,7.28
2022-12-28T15:43:08.637Z,11.52
2022-12-28T15:45:35.527Z,9.07
2022-12-28T15:48:02.360Z,9.00
2022-12-28T15:50:29.433Z,8.18
2022-12-28T15:52:56.330Z,12.43
2022-12-28T15:55:23.200Z,10.18
2022-12-28T15:57:50.223Z,9.55
2022-12-28T16:00:18.935Z,7.40
2022-12-28T16:02:46.728Z,10.88
2022-12-28T16:05:14.365Z,9.68
2022-12-28T16:07:41.477Z,6.68
2022-12-28T16:10:08.939Z,6.20
2022-12-28T16:12:36.025Z,11.10
2022-12-28T16:15:02.960Z,14.23
2022-12-28T16:17:29.976Z,10.20
2022-12-28T16:19:56.991Z,12.63
2022-12-28T16:22:24.102Z,11.57
2022-12-28T16:24:51.048Z,9.63
2022-12-28T16:27:18.631Z,12.50
2022-12-28T16:29:46.367Z,10.32
2022-12-28T16:32:13.372Z,13.60
2022-12-28T16:34:40.578Z,9.77
2022-12-28T16:37:10.076Z,8.98
2022-12-28T16:39:38.072Z,10.57
2022-12-28T16:42:06.548Z,14.13
2022-12-28T16:44:34.125Z,8.77
2022-12-28T16:47:01.091Z,8.32
2022-12-28T16:49:28.572Z,12.88
2022-12-28T16:51:55.776Z,9.48
2022-12-28T16:54:24.310Z,11.07
2022-12-28T16:56:52.432Z,10.00
2022-12-28T16:59:24.550Z,8.30
2022-12-28T17:01:53.080Z,11.55
2022-12-28T17:04:20.547Z,10.90
2022-12-28T17:06:50.824Z,14.05
2022-12-28T17:09:18.711Z,10.15
2022-12-28T17:11:49.915Z,13.52
2022-12-28T17:14:35.888Z,11.70
2022-12-28T17:17:04.615Z,12.27
2022-12-28T17:19:31.735Z,7.82
2022-12-28T17:21:58.639Z,9.68
2022-12-28T17:24:26.019Z,9.25
2022-12-28T17:26:53.120Z,8.50
2022-12-28T17:29:20.202Z,9.38
2022-12-28T17:31:47.096Z,10.45
2022-12-28T17:34:14.133Z,8.60
2022-12-28T17:36:41.855Z,10.13
2022-12-28T17:39:08.849Z,8.60
2022-12-28T17:41:35.665Z,8.75
2022-12-28T17:44:03.272Z,9.75
2022-12-28T17:46:31.625Z,11.52
2022-12-28T17:48:59.997Z,9.85
2022-12-28T17:51:29.175Z,7.97
2022-12-28T17:53:57.376Z,9.65
2022-12-28T17:56:24.991Z,7.95
2022-12-28T17:58:55.898Z,8.52
2022-12-28T18:01:23.269Z,6.13
2022-12-28T18:03:50.486Z,6.88
2022-12-28T18:06:17.536Z,6.97
2022-12-28T18:08:44.894Z,9.43
2022-12-28T18:11:12.581Z,6.18
2022-12-28T18:13:40.628Z,6.38
2022-12-28T18:16:09.353Z,7.50
2022-12-28T18:18:36.625Z,11.27
2022-12-28T18:21:07.631Z,7.78
2022-12-28T18:23:35.285Z,8.25
2022-12-28T18:26:12.161Z,6.05
2022-12-28T18:28:39.101Z,5.97
2022-12-28T18:31:06.761Z,8.73
2022-12-28T18:33:36.842Z,7.45
2022-12-28T18:36:06.757Z,6.68
2022-12-28T18:38:37.478Z,11.75
2022-12-28T18:41:04.432Z,10.27
2022-12-28T18:43:31.386Z,5.13
2022-12-28T18:46:00.096Z,7.90
2022-12-28T18:48:27.785Z,6.25
2022-12-28T18:51:03.175Z,7.88
2022-12-28T18:53:31.044Z,7.72
2022-12-28T18:56:19.173Z,6.50
2022-12-28T18:58:52.018Z,7.13
2022-12-28T19:04:10.052Z,4.22
2022-12-28T19:06:38.141Z,5.55
2022-12-28T19:09:06.841Z,11.38
2022-12-28T19:11:33.872Z,5.82
2022-12-28T19:14:03.128Z,5.40
2022-12-28T19:16:31.881Z,6.70
2022-12-28T19:19:00.150Z,5.35
2022-12-28T19:21:36.081Z,4.78
2022-12-28T19:24:11.523Z,5.63
2022-12-28T19:26:38.353Z,4.57
2022-12-28T19:29:05.674Z,4.47
2022-12-28T19:31:34.852Z,6.47
2022-12-28T19:34:01.815Z,5.88
2022-12-28T19:36:28.985Z,5.97
2022-12-28T19:38:56.621Z,5.93
2022-12-28T19:41:23.955Z,7.05
2022-12-28T19:43:51.451Z,5.03
2022-12-28T19:46:30.556Z,5.55
2022-12-28T19:49:02.515Z,6.28
2022-12-28T19:51:32.153Z,6.68
2022-12-28T19:54:00.702Z,7.50
2022-12-28T19:56:28.091Z,8.02
2022-12-28T19:59:01.233Z,6.05
2022-12-28T20:01:32.364Z,5.13
2022-12-28T20:04:00.094Z,5.97
2022-12-28T20:06:29.327Z,6.90
2022-12-28T20:08:58.644Z,7.32
2022-12-28T20:11:26.724Z,7.00
2022-12-28T20:13:57.557Z,8.90
2022-12-28T20:16:26.533Z,8.93
2022-12-28T20:18:54.706Z,8.07
2022-12-28T20:21:26.664Z,9.45
2022-12-28T20:23:54.395Z,5.55
2022-12-28T20:26:22.723Z,4.50
2022-12-28T20:28:51.005Z,4.90
2022-12-28T20:31:18.355Z,5.50
2022-12-28T20:33:46.297Z,5.85
2022-12-28T20:36:16.870Z,5.10
2022-12-28T20:38:44.412Z,4.78
2022-12-28T20:41:36.635Z,4.22
2022-12-28T20:44:16.068Z,5.15
2022-12-28T20:46:44.294Z,4.85
2022-12-28T20:49:11.586Z,5.00
2022-12-28T20:51:38.829Z,4.95
2022-12-28T20:54:06.508Z,4.32
2022-12-28T20:56:35.082Z,4.75
2022-12-28T20:59:01.925Z,4.65
2022-12-28T21:01:29.046Z,3.58
2022-12-28T21:03:56.120Z,3.03
2022-12-28T21:06:23.116Z,4.55
2022-12-28T21:08:50.125Z,5.70
2022-12-28T21:11:17.432Z,3.47
2022-12-28T21:13:45.206Z,3.00
2022-12-28T21:16:13.282Z,4.28
2022-12-28T21:18:40.919Z,3.65
2022-12-28T21:21:18.156Z,3.45
2022-12-28T21:23:45.608Z,3.40
2022-12-28T21:26:15.452Z,3.33
2022-12-28T21:28:43.114Z,2.67
2022-12-28T21:31:10.645Z,2.78
2022-12-28T21:33:39.056Z,2.92
2022-12-28T21:36:11.101Z,5.53
2022-12-28T21:38:40.246Z,2.63
2022-12-28T21:41:11.481Z,3.70
2022-12-28T21:43:39.035Z,2.63
2022-12-28T21:46:16.524Z,2.80
2022-12-28T21:48:43.565Z,2.85
2022-12-28T21:51:34.184Z,3.22
2022-12-28T21:54:08.289Z,5.60
2022-12-28T21:56:36.833Z,2.80
2022-12-28T21:59:04.013Z,4.32
2022-12-28T22:01:51.687Z,3.15
2022-12-28T22:04:39.697Z,3.50
2022-12-28T22:07:08.821Z,5.50
2022-12-28T22:09:54.801Z,3.40
2022-12-28T22:12:34.846Z,4.35
2022-12-28T22:15:39.478Z,3.08
2022-12-28T22:18:12.781Z,2.20
2022-12-28T22:20:47.094Z,2.67
2022-12-28T22:23:14.411Z,2.25
2022-12-28T22:25:41.914Z,2.63
2022-12-28T22:28:08.866Z,1.20
2022-12-28T22:30:36.774Z,1.83
2022-12-28T22:33:04.575Z,3.33
2022-12-28T22:35:32.060Z,2.90
2022-12-28T22:37:59.054Z,1.42
2022-12-28T22:40:27.414Z,1.20
2022-12-28T22:42:54.292Z,1.85
2022-12-28T22:45:23.696Z,1.67
2022-12-28T22:47:54.168Z,3.28
2022-12-28T22:50:21.313Z,4.00
2022-12-28T22:52:48.212Z,6.35
2022-12-28T22:55:15.388Z,3.28
2022-12-28T22:57:42.296Z,4.30
2022-12-28T23:00:12.727Z,9.85
2022-12-28T23:02:42.822Z,4.72
2022-12-28T23:05:11.332Z,6.35
2022-12-28T23:07:39.649Z,5.85
2022-12-28T23:10:08.463Z,10.38
2022-12-28T23:12:35.542Z,10.80
2022-12-28T23:15:19.745Z,2.80
2022-12-28T23:17:48.490Z,6.90
2022-12-28T23:20:33.977Z,12.55
2022-12-28T23:23:19.654Z,2.55
2022-12-28T23:26:05.308Z,1.77
2022-12-28T23:28:36.049Z,1.65
2022-12-28T23:31:03.140Z,3.92
2022-12-28T23:33:30.271Z,2.83
2022-12-28T23:36:02.564Z,1.98
2022-12-28T23:38:31.218Z,2.15
2022-12-28T23:41:16.791Z,2.42
2022-12-28T23:43:43.811Z,1.88
2022-12-28T23:46:10.976Z,3.28
2022-12-28T23:48:38.090Z,1.40
2022-12-28T23:51:08.272Z,3.00
2022-12-28T23:53:35.651Z,2.38
2022-12-28T23:56:02.590Z,1.60
2022-12-28T23:58:29.572Z,1.88
